Time;durP1;ratioP1;P1;durP2;ratioP2;P2;SDS_P1;SDS_P2;PMS_P1;PMS_P2;Temp;Humidity;BMP_temperature;BMP_pressure;BME280_temperature;BME280_humidity;BME280_pressure;Samples;Min_cycle;Max_cycle;Signal;HPM_P1;HPM_P2
2021/03/25 00:01:47;;;;;;;;;;;9.70;55.90;;;;;;5015208;28;19925;-74
2021/03/25 00:04:14;;;;;;;;;;;9.60;55.90;;;;;;5016559;28;19975;-75
2021/03/25 00:06:43;;;;;;;;;;;9.60;56.00;;;;;;5015208;28;19980;-75
2021/03/25 00:09:10;;;;;;;;;;;9.60;56.10;;;;;;5017287;28;19933;-75
2021/03/25 00:11:36;;;;;;;;;;;9.60;56.20;;;;;;5032977;28;19936;-75
2021/03/25 00:14:03;;;;;;;;;;;9.50;56.70;;;;;;5004066;28;20361;-75
2021/03/25 00:16:29;;;;;;;;;;;9.50;56.20;;;;;;5015200;28;19926;-74
2021/03/25 00:18:55;;;;;;;;;;;9.40;56.20;;;;;;5030563;28;19926;-75
2021/03/25 00:21:23;;;;;;;;;;;9.40;56.30;;;;;;5033086;28;20333;-74
2021/03/25 00:23:49;;;;;;;;;;;9.40;56.30;;;;;;5017274;28;19992;-74
2021/03/25 00:26:15;;;;;;;;;;;9.30;56.30;;;;;;5015048;28;19940;-73
2021/03/25 00:28:41;;;;;;;;;;;9.30;56.30;;;;;;5016119;28;19930;-74
2021/03/25 00:31:08;;;;;;;;;;;9.30;56.30;;;;;;5014542;28;20366;-74
2021/03/25 00:33:34;;;;;;;;;;;9.20;56.40;;;;;;5014413;28;20386;-74
2021/03/25 00:36:00;;;;;;;;;;;9.20;56.40;;;;;;5014280;28;20333;-75
2021/03/25 00:38:27;;;;;;;;;;;9.20;56.60;;;;;;5014945;28;19933;-74
2021/03/25 00:40:53;;;;;;;;;;;9.20;56.60;;;;;;5014434;28;20298;-74
2021/03/25 00:43:21;;;;;;;;;;;9.20;56.60;;;;;;5028373;28;19932;-75
2021/03/25 00:45:48;;;;;;;;;;;9.20;56.60;;;;;;5020668;28;19988;-75
2021/03/25 00:48:16;;;;;;;;;;;9.10;56.60;;;;;;5014764;28;19933;-75
2021/03/25 00:50:43;;;;;;;;;;;9.10;56.70;;;;;;5021918;28;19925;-75
2021/03/25 00:53:11;;;;;;;;;;;9.00;56.60;;;;;;5032698;28;19947;-75
2021/03/25 00:55:38;;;;;;;;;;;9.00;56.80;;;;;;5017618;28;19929;-74
2021/03/25 00:58:04;;;;;;;;;;;9.00;56.80;;;;;;5015476;28;20386;-75
2021/03/25 01:00:32;;;;;;;;;;;9.00;56.90;;;;;;5014351;28;20696;-75
2021/03/25 01:02:58;;;;;;;;;;;8.90;56.90;;;;;;5015139;28;19938;-75
2021/03/25 01:05:25;;;;;;;;;;;9.00;57.00;;;;;;5013869;28;19925;-75
2021/03/25 01:07:52;;;;;;;;;;;8.90;56.90;;;;;;5023610;28;19932;-75
2021/03/25 01:10:20;;;;;;;;;;;8.90;56.90;;;;;;5028254;28;19947;-76
2021/03/25 01:12:47;;;;;;;;;;;8.90;57.00;;;;;;5027447;28;19933;-76
2021/03/25 01:15:14;;;;;;;;;;;8.80;57.00;;;;;;5027483;28;19932;-75
2021/03/25 01:17:43;;;;;;;;;;;8.80;57.00;;;;;;5013341;28;19937;-75
2021/03/25 01:20:14;;;;;;;;;;;8.80;57.20;;;;;;5033517;28;19925;-76
2021/03/25 01:22:40;;;;;;;;;;;8.70;57.10;;;;;;5033279;28;19979;-76
2021/03/25 01:25:07;;;;;;;;;;;8.70;57.30;;;;;;5031738;28;19926;-76
2021/03/25 01:27:33;;;;;;;;;;;8.70;57.30;;;;;;5014398;28;19925;-76
2021/03/25 01:30:01;;;;;;;;;;;8.70;57.30;;;;;;5014636;28;19933;-76
2021/03/25 01:32:28;;;;;;;;;;;8.70;57.30;;;;;;5028535;28;19932;-75
2021/03/25 01:34:54;;;;;;;;;;;8.70;57.40;;;;;;5018881;28;20567;-75
2021/03/25 01:37:20;;;;;;;;;;;8.70;57.40;;;;;;5018365;28;19972;-75
2021/03/25 01:39:46;;;;;;;;;;;8.70;57.50;;;;;;5014803;28;19925;-75
2021/03/25 01:42:22;;;;;;;;;;;8.70;57.40;;;;;;5013455;28;19929;-75
2021/03/25 01:44:49;;;;;;;;;;;8.70;57.40;;;;;;5011699;28;19925;-75
2021/03/25 01:47:16;;;;;;;;;;;8.70;57.50;;;;;;5013939;28;19932;-75
2021/03/25 01:49:42;;;;;;;;;;;8.70;57.50;;;;;;5024373;28;19937;-74
2021/03/25 01:52:24;;;;;;;;;;;8.70;57.60;;;;;;5013542;28;19925;-74
2021/03/25 01:55:14;;;;;;;;;;;8.60;57.50;;;;;;5020600;28;20370;-74
2021/03/25 01:58:04;;;;;;;;;;;8.60;57.60;;;;;;5005207;28;19925;-74
2021/03/25 02:00:36;;;;;;;;;;;8.60;57.60;;;;;;5006149;28;19937;-74
2021/03/25 02:03:15;;;;;;;;;;;8.60;57.70;;;;;;5031878;28;19975;-74
2021/03/25 02:05:48;;;;;;;;;;;8.50;58.30;;;;;;5007523;28;20325;-74
2021/03/25 02:08:19;;;;;;;;;;;8.50;57.80;;;;;;5014107;28;20419;-74
2021/03/25 02:10:49;;;;;;;;;;;8.50;57.80;;;;;;5012368;28;19933;-74
2021/03/25 02:13:17;;;;;;;;;;;8.50;57.90;;;;;;5026208;28;19979;-74
2021/03/25 02:15:47;;;;;;;;;;;8.50;58.00;;;;;;5021861;28;19932;-74
2021/03/25 02:18:20;;;;;;;;;;;8.50;57.90;;;;;;5019068;28;19932;-74
2021/03/25 02:21:04;;;;;;;;;;;8.50;57.80;;;;;;5005245;28;19925;-75
2021/03/25 02:23:47;;;;;;;;;;;8.50;57.80;;;;;;5032838;28;19940;-74
2021/03/25 02:26:15;;;;;;;;;;;8.50;57.70;;;;;;5013053;28;21389;-74
2021/03/25 02:29:08;;;;;;;;;;;8.40;57.80;;;;;;5012759;28;19926;-73
2021/03/25 02:31:37;;;;;;;;;;;8.40;57.80;;;;;;5014324;28;20333;-73
2021/03/25 02:34:06;;;;;;;;;;;8.40;57.90;;;;;;4993523;28;19996;-73
2021/03/25 02:36:35;;;;;;;;;;;8.40;57.90;;;;;;5002282;28;20374;-74
2021/03/25 02:39:05;;;;;;;;;;;8.40;57.90;;;;;;5013129;28;19949;-74
2021/03/25 02:41:33;;;;;;;;;;;8.40;57.90;;;;;;5032594;28;19925;-74
2021/03/25 02:44:02;;;;;;;;;;;8.50;58.20;;;;;;5034721;28;19929;-74
2021/03/25 02:46:31;;;;;;;;;;;8.50;58.20;;;;;;5028324;28;19979;-74
2021/03/25 02:49:00;;;;;;;;;;;8.50;58.90;;;;;;5025492;28;19929;-74
2021/03/25 02:51:29;;;;;;;;;;;8.50;58.30;;;;;;5005951;28;19932;-74
2021/03/25 02:53:55;;;;;;;;;;;8.50;58.20;;;;;;5034792;28;19932;-74
2021/03/25 02:56:23;;;;;;;;;;;8.50;58.20;;;;;;5020702;28;20271;-74
2021/03/25 02:58:52;;;;;;;;;;;8.50;58.30;;;;;;5016764;28;19933;-74
2021/03/25 03:01:19;;;;;;;;;;;8.50;58.40;;;;;;5016439;28;20365;-74
2021/03/25 03:03:48;;;;;;;;;;;8.50;58.40;;;;;;5018662;28;19932;-74
2021/03/25 03:06:17;;;;;;;;;;;8.40;58.30;;;;;;5029849;28;20287;-74
2021/03/25 03:08:48;;;;;;;;;;;8.40;58.20;;;;;;5015573;28;19929;-74
2021/03/25 03:11:16;;;;;;;;;;;8.40;58.40;;;;;;5019897;28;19925;-74
2021/03/25 03:13:45;;;;;;;;;;;8.40;58.50;;;;;;5033183;28;20310;-74
2021/03/25 03:16:14;;;;;;;;;;;8.40;58.60;;;;;;5034316;28;19932;-74
2021/03/25 03:18:42;;;;;;;;;;;8.40;58.70;;;;;;5033975;28;19929;-73
2021/03/25 03:21:09;;;;;;;;;;;8.40;58.70;;;;;;5027968;28;19925;-73
2021/03/25 03:23:37;;;;;;;;;;;8.40;58.70;;;;;;5034878;28;19932;-73
2021/03/25 03:26:05;;;;;;;;;;;8.40;58.70;;;;;;5032772;28;19936;-73
2021/03/25 03:28:34;;;;;;;;;;;8.40;58.70;;;;;;5034866;28;19925;-73
2021/03/25 03:31:02;;;;;;;;;;;8.40;58.50;;;;;;5015599;28;19926;-73
2021/03/25 03:33:31;;;;;;;;;;;8.40;58.70;;;;;;5017597;28;20366;-73
2021/03/25 03:35:58;;;;;;;;;;;8.40;58.90;;;;;;5032744;28;20325;-74
2021/03/25 03:38:27;;;;;;;;;;;8.40;58.80;;;;;;5019593;28;19936;-74
2021/03/25 03:40:55;;;;;;;;;;;8.30;58.80;;;;;;5025826;28;19951;-73
2021/03/25 03:43:22;;;;;;;;;;;8.30;58.80;;;;;;5023145;28;19933;-73
2021/03/25 03:45:50;;;;;;;;;;;8.30;58.90;;;;;;5017864;28;20441;-73
2021/03/25 03:48:20;;;;;;;;;;;8.30;59.00;;;;;;5018833;28;20393;-73
2021/03/25 03:50:48;;;;;;;;;;;8.30;59.00;;;;;;5028543;28;20336;-74
2021/03/25 03:53:14;;;;;;;;;;;8.30;58.80;;;;;;5014167;28;19925;-73
2021/03/25 03:55:40;;;;;;;;;;;8.30;58.90;;;;;;5020236;28;19925;-74
2021/03/25 03:58:13;;;;;;;;;;;8.30;58.90;;;;;;5023874;28;20368;-73
2021/03/25 04:00:42;;;;;;;;;;;8.30;58.80;;;;;;5028776;28;19948;-73
2021/03/25 04:03:12;;;;;;;;;;;8.30;58.90;;;;;;5014036;28;19929;-74
2021/03/25 04:05:41;;;;;;;;;;;8.30;58.80;;;;;;5032999;28;19925;-74
2021/03/25 04:08:09;;;;;;;;;;;8.30;58.80;;;;;;4972872;28;1366357;-74
2021/03/25 04:10:38;;;;;;;;;;;8.30;58.90;;;;;;5035047;28;19929;-74
2021/03/25 04:13:06;;;;;;;;;;;8.30;58.80;;;;;;5020327;28;19932;-74
2021/03/25 04:15:34;;;;;;;;;;;8.30;58.90;;;;;;5014793;28;19929;-73
2021/03/25 04:18:03;;;;;;;;;;;8.30;58.90;;;;;;5028529;28;19929;-74
2021/03/25 04:20:29;;;;;;;;;;;8.30;59.00;;;;;;5018003;28;19951;-74
2021/03/25 04:22:58;;;;;;;;;;;8.20;58.80;;;;;;5034368;28;19932;-73
2021/03/25 04:25:27;;;;;;;;;;;8.20;59.00;;;;;;5019344;28;19925;-74
2021/03/25 04:27:55;;;;;;;;;;;8.20;59.10;;;;;;5021032;28;20332;-74
2021/03/25 04:30:23;;;;;;;;;;;8.10;59.10;;;;;;5025767;28;20378;-74
2021/03/25 04:32:51;;;;;;;;;;;8.10;59.10;;;;;;5033281;28;20306;-73
2021/03/25 04:35:18;;;;;;;;;;;8.10;59.10;;;;;;5015922;28;20366;-73
2021/03/25 04:37:46;;;;;;;;;;;8.10;59.20;;;;;;5014526;28;19979;-74
2021/03/25 04:40:14;;;;;;;;;;;8.10;59.20;;;;;;5017950;28;20025;-74
2021/03/25 04:42:41;;;;;;;;;;;8.00;59.10;;;;;;5014684;28;19933;-74
2021/03/25 04:45:12;;;;;;;;;;;8.10;59.70;;;;;;5014369;28;19984;-74
2021/03/25 04:47:43;;;;;;;;;;;8.10;59.10;;;;;;5004561;28;19971;-73
2021/03/25 04:50:15;;;;;;;;;;;8.10;59.00;;;;;;5032016;28;19925;-73
2021/03/25 04:52:41;;;;;;;;;;;8.10;59.20;;;;;;5029726;28;20302;-74
2021/03/25 04:55:15;;;;;;;;;;;8.10;59.80;;;;;;5011684;28;19948;-73
2021/03/25 04:57:43;;;;;;;;;;;8.20;59.30;;;;;;5013969;28;19926;-73
2021/03/25 05:00:11;;;;;;;;;;;8.20;59.20;;;;;;5018662;28;19925;-74
2021/03/25 05:02:38;;;;;;;;;;;8.30;59.20;;;;;;5004932;28;19932;-74
2021/03/25 05:05:05;;;;;;;;;;;8.30;59.20;;;;;;5013796;28;19929;-73
2021/03/25 05:07:34;;;;;;;;;;;8.40;59.30;;;;;;5014318;28;19925;-74
2021/03/25 05:10:01;;;;;;;;;;;8.40;59.40;;;;;;5015011;28;20366;-73
2021/03/25 05:12:27;;;;;;;;;;;8.40;59.30;;;;;;5013777;28;19929;-74
2021/03/25 05:15:07;;;;;;;;;;;8.30;59.30;;;;;;5014292;28;19972;-73
2021/03/25 05:17:36;;;;;;;;;;;8.30;59.40;;;;;;5012141;28;20374;-73
2021/03/25 05:20:15;;;;;;;;;;;8.20;59.40;;;;;;5020426;28;19983;-73
2021/03/25 05:22:45;;;;;;;;;;;8.20;59.50;;;;;;5014855;28;19925;-73
2021/03/25 05:25:15;;;;;;;;;;;8.20;59.50;;;;;;5023361;28;19924;-73
2021/03/25 05:27:44;;;;;;;;;;;8.10;59.40;;;;;;5018456;28;20370;-73
2021/03/25 05:30:13;;;;;;;;;;;8.10;59.40;;;;;;5003286;28;19933;-73
2021/03/25 05:32:42;;;;;;;;;;;8.10;59.50;;;;;;5026632;28;19925;-73
2021/03/25 05:35:10;;;;;;;;;;;8.10;59.40;;;;;;5013708;28;19925;-73
2021/03/25 05:37:36;;;;;;;;;;;8.10;59.40;;;;;;5014501;28;20397;-73
2021/03/25 05:40:10;;;;;;;;;;;8.10;59.40;;;;;;5014204;28;19945;-73
2021/03/25 05:42:42;;;;;;;;;;;8.10;59.50;;;;;;5026525;28;19925;-72
2021/03/25 05:45:17;;;;;;;;;;;8.00;59.50;;;;;;5022388;28;19932;-73
2021/03/25 05:47:54;;;;;;;;;;;8.10;59.50;;;;;;5013793;28;19929;-72
2021/03/25 05:50:23;;;;;;;;;;;8.10;59.40;;;;;;5015341;28;19926;-72
2021/03/25 05:52:55;;;;;;;;;;;8.10;59.20;;;;;;5021431;28;19926;-73
2021/03/25 05:55:39;;;;;;;;;;;8.20;59.30;;;;;;5018304;28;19925;-73
2021/03/25 05:58:11;;;;;;;;;;;8.20;59.20;;;;;;5020597;28;19930;-72
2021/03/25 06:00:39;;;;;;;;;;;8.30;59.10;;;;;;5018900;28;19926;-73
2021/03/25 06:03:08;;;;;;;;;;;8.40;59.20;;;;;;5013191;28;19932;-73
2021/03/25 06:05:34;;;;;;;;;;;8.50;59.80;;;;;;5013081;28;19929;-73
2021/03/25 06:08:11;;;;;;;;;;;8.50;59.20;;;;;;5013313;28;19932;-73
2021/03/25 06:10:42;;;;;;;;;;;8.60;59.20;;;;;;5012800;28;19926;-73
2021/03/25 06:13:18;;;;;;;;;;;8.60;59.10;;;;;;5013955;28;19933;-73
2021/03/25 06:15:55;;;;;;;;;;;8.70;58.90;;;;;;5021293;28;19933;-73
2021/03/25 06:18:30;;;;;;;;;;;8.80;58.80;;;;;;5010269;28;19929;-73
2021/03/25 06:21:04;;;;;;;;;;;8.80;58.70;;;;;;5027122;28;19936;-73
2021/03/25 06:23:33;;;;;;;;;;;8.90;58.60;;;;;;5017651;28;20317;-73
2021/03/25 06:26:12;;;;;;;;;;;9.00;58.60;;;;;;5017356;28;19926;-71
2021/03/25 06:28:40;;;;;;;;;;;9.10;58.60;;;;;;5026820;28;19932;-72
2021/03/25 06:31:14;;;;;;;;;;;9.10;58.50;;;;;;5016700;28;19929;-72
2021/03/25 06:33:45;;;;;;;;;;;9.20;58.30;;;;;;5012774;28;19932;-72
2021/03/25 06:36:13;;;;;;;;;;;9.30;58.30;;;;;;5012807;28;19930;-72
2021/03/25 06:38:42;;;;;;;;;;;9.40;58.30;;;;;;5011135;28;19933;-72
2021/03/25 06:41:14;;;;;;;;;;;9.40;58.20;;;;;;5012957;28;20361;-72
2021/03/25 06:43:43;;;;;;;;;;;9.60;58.30;;;;;;5011882;28;20378;-71
2021/03/25 06:46:17;;;;;;;;;;;9.60;58.10;;;;;;5008759;28;19930;-72
2021/03/25 06:48:45;;;;;;;;;;;9.70;57.90;;;;;;5012526;28;19926;-72
2021/03/25 06:51:20;;;;;;;;;;;9.80;57.70;;;;;;5011038;28;19932;-72
2021/03/25 06:53:47;;;;;;;;;;;9.90;57.50;;;;;;5012643;28;21046;-72
2021/03/25 06:56:16;;;;;;;;;;;10.00;56.40;;;;;;5011187;28;19925;-73
2021/03/25 06:58:45;;;;;;;;;;;10.10;56.40;;;;;;5008840;28;19983;-72
2021/03/25 07:01:19;;;;;;;;;;;10.20;56.20;;;;;;4993211;28;19929;-72
2021/03/25 07:03:45;;;;;;;;;;;10.30;55.90;;;;;;4999575;28;20361;-72
2021/03/25 07:06:12;;;;;;;;;;;10.40;55.60;;;;;;5012679;28;20299;-73
2021/03/25 07:08:39;;;;;;;;;;;10.60;55.40;;;;;;5012524;28;20068;-73
2021/03/25 07:11:14;;;;;;;;;;;10.70;55.10;;;;;;5012778;28;20127;-74
2021/03/25 07:13:42;;;;;;;;;;;10.90;54.90;;;;;;4993276;28;19930;-73
2021/03/25 07:16:09;;;;;;;;;;;11.00;54.40;;;;;;4997425;28;20591;-73
2021/03/25 07:18:43;;;;;;;;;;;11.20;53.70;;;;;;5016651;28;19925;-73
2021/03/25 07:21:20;;;;;;;;;;;11.40;53.50;;;;;;5007667;28;19926;-73
2021/03/25 07:23:47;;;;;;;;;;;11.60;53.30;;;;;;5010754;28;19940;-73
2021/03/25 07:26:19;;;;;;;;;;;11.80;52.90;;;;;;5015105;28;19925;-73
2021/03/25 07:28:58;;;;;;;;;;;11.90;52.50;;;;;;5032923;28;19972;-73
2021/03/25 07:31:27;;;;;;;;;;;12.00;52.30;;;;;;4994960;28;20016;-73
2021/03/25 07:33:54;;;;;;;;;;;12.20;52.20;;;;;;4996614;28;19933;-73
2021/03/25 07:36:20;;;;;;;;;;;12.40;52.10;;;;;;4997202;28;19933;-73
2021/03/25 07:38:47;;;;;;;;;;;12.50;51.00;;;;;;5001042;28;19937;-73
2021/03/25 07:41:18;;;;;;;;;;;12.70;50.70;;;;;;4996432;28;19925;-73
2021/03/25 07:43:56;;;;;;;;;;;12.80;50.30;;;;;;4996345;28;19980;-72
2021/03/25 07:46:25;;;;;;;;;;;13.00;49.80;;;;;;4996238;28;19946;-73
2021/03/25 07:49:06;;;;;;;;;;;13.10;49.40;;;;;;4996288;28;20387;-73
2021/03/25 07:51:46;;;;;;;;;;;13.20;48.70;;;;;;4996343;28;20358;-72
2021/03/25 07:54:15;;;;;;;;;;;13.30;48.40;;;;;;4996019;28;19963;-73
2021/03/25 07:57:03;;;;;;;;;;;13.50;48.60;;;;;;4995835;28;20303;-73
2021/03/25 07:59:31;;;;;;;;;;;13.60;48.10;;;;;;5030758;28;20019;-73
2021/03/25 08:01:58;;;;;;;;;;;13.80;47.80;;;;;;5035189;28;19925;-73
2021/03/25 08:04:26;;;;;;;;;;;14.00;47.50;;;;;;5022964;28;19932;-73
2021/03/25 08:07:03;;;;;;;;;;;14.10;47.20;;;;;;5015290;28;19926;-74
2021/03/25 08:09:40;;;;;;;;;;;14.20;46.80;;;;;;5015349;28;19930;-73
2021/03/25 08:12:07;;;;;;;;;;;14.30;46.70;;;;;;5015305;28;19929;-73
2021/03/25 08:14:35;;;;;;;;;;;14.50;46.70;;;;;;5015149;28;19926;-73
2021/03/25 08:17:06;;;;;;;;;;;14.70;46.70;;;;;;5015019;28;19925;-71
2021/03/25 08:19:39;;;;;;;;;;;14.80;46.20;;;;;;5015018;28;19929;-71
2021/03/25 08:22:13;;;;;;;;;;;15.00;46.10;;;;;;5015010;28;19925;-71
2021/03/25 08:24:47;;;;;;;;;;;15.20;45.80;;;;;;5013300;28;19925;-72
2021/03/25 08:27:19;;;;;;;;;;;15.30;45.50;;;;;;5014788;28;19933;-72
2021/03/25 08:29:50;;;;;;;;;;;15.40;45.00;;;;;;5015177;28;19929;-71
2021/03/25 08:32:21;;;;;;;;;;;15.50;44.50;;;;;;5014968;28;19926;-72
2021/03/25 08:34:52;;;;;;;;;;;15.50;44.10;;;;;;5014077;28;19926;-72
2021/03/25 08:37:28;;;;;;;;;;;15.60;44.20;;;;;;5013560;28;19926;-72
2021/03/25 08:39:59;;;;;;;;;;;15.70;44.30;;;;;;5014918;28;19937;-72
2021/03/25 08:42:28;;;;;;;;;;;15.80;44.30;;;;;;5015043;28;20405;-72
2021/03/25 08:45:07;;;;;;;;;;;15.90;44.30;;;;;;5014873;28;20270;-72
2021/03/25 08:47:38;;;;;;;;;;;16.00;44.10;;;;;;5014976;28;20022;-72
2021/03/25 08:50:11;;;;;;;;;;;16.10;44.10;;;;;;5013126;28;19925;-73
2021/03/25 08:52:39;;;;;;;;;;;16.10;44.00;;;;;;5014869;28;19937;-72
2021/03/25 08:55:15;;;;;;;;;;;16.20;44.10;;;;;;5014691;28;19925;-72
2021/03/25 08:57:42;;;;;;;;;;;16.30;44.10;;;;;;5014458;28;20003;-72
2021/03/25 09:00:12;;;;;;;;;;;16.30;43.90;;;;;;5013608;28;19925;-72
2021/03/25 09:02:41;;;;;;;;;;;16.20;43.70;;;;;;5013561;28;19929;-72
2021/03/25 09:05:09;;;;;;;;;;;16.20;43.80;;;;;;5013014;28;19995;-72
2021/03/25 09:07:37;;;;;;;;;;;16.20;43.80;;;;;;5014170;28;19937;-72
2021/03/25 09:10:04;;;;;;;;;;;16.20;43.80;;;;;;5014292;28;19956;-72
2021/03/25 09:12:32;;;;;;;;;;;16.20;43.80;;;;;;5014090;28;19926;-72
2021/03/25 09:14:59;;;;;;;;;;;16.20;43.80;;;;;;5013045;28;19926;-72
2021/03/25 09:17:26;;;;;;;;;;;16.20;43.80;;;;;;5013338;28;20382;-72
2021/03/25 09:19:55;;;;;;;;;;;16.20;43.80;;;;;;5013722;28;19972;-72
2021/03/25 09:22:39;;;;;;;;;;;16.20;43.90;;;;;;5013922;28;19925;-72
2021/03/25 09:25:16;;;;;;;;;;;16.20;43.90;;;;;;5013730;28;19926;-72
2021/03/25 09:27:53;;;;;;;;;;;16.20;43.90;;;;;;5013694;28;19929;-72
2021/03/25 09:30:21;;;;;;;;;;;16.20;43.90;;;;;;5013921;28;19936;-72
2021/03/25 09:32:48;;;;;;;;;;;16.10;43.90;;;;;;5013393;28;19926;-72
2021/03/25 09:35:38;;;;;;;;;;;16.10;44.00;;;;;;5013934;28;19991;-72
2021/03/25 09:38:05;;;;;;;;;;;16.10;44.00;;;;;;4998484;28;19929;-72
2021/03/25 09:40:43;;;;;;;;;;;16.10;44.10;;;;;;5013678;28;19932;-72
2021/03/25 09:43:29;;;;;;;;;;;16.10;44.20;;;;;;4992721;28;19974;-72
2021/03/25 09:45:57;;;;;;;;;;;16.20;44.30;;;;;;4986947;28;20390;-72
2021/03/25 09:48:26;;;;;;;;;;;16.20;44.30;;;;;;4986233;28;20323;-72
2021/03/25 09:51:02;;;;;;;;;;;16.20;44.20;;;;;;4974403;28;19926;-72
2021/03/25 09:53:43;;;;;;;;;;;16.20;44.50;;;;;;4979278;28;19933;-72
2021/03/25 09:56:22;;;;;;;;;;;16.20;44.50;;;;;;4991612;28;19932;-72
2021/03/25 09:58:48;;;;;;;;;;;16.20;44.60;;;;;;4987526;28;19927;-73
2021/03/25 10:01:33;;;;;;;;;;;16.20;44.50;;;;;;4974513;28;19926;-72
2021/03/25 10:04:00;;;;;;;;;;;16.30;44.70;;;;;;4989131;28;19929;-72
2021/03/25 10:06:49;;;;;;;;;;;16.30;44.80;;;;;;4984710;28;19934;-72
2021/03/25 10:09:16;;;;;;;;;;;16.30;44.60;;;;;;4986690;28;19926;-72
2021/03/25 10:12:03;;;;;;;;;;;16.40;44.50;;;;;;4993210;28;19955;-72
2021/03/25 10:14:51;;;;;;;;;;;16.50;44.50;;;;;;4979426;28;20025;-72
2021/03/25 10:17:38;;;;;;;;;;;16.60;44.20;;;;;;4980251;28;19926;-72
2021/03/25 10:20:04;;;;;;;;;;;16.60;44.10;;;;;;4981444;28;19949;-72
2021/03/25 10:22:31;;;;;;;;;;;16.80;44.10;;;;;;4993434;28;19977;-72
2021/03/25 10:24:58;;;;;;;;;;;16.90;43.70;;;;;;4993287;28;19953;-72
2021/03/25 10:27:38;;;;;;;;;;;17.00;42.90;;;;;;4991740;28;19962;-73
2021/03/25 10:30:07;;;;;;;;;;;17.10;42.80;;;;;;4983012;28;19925;-73
2021/03/25 10:32:35;;;;;;;;;;;17.20;42.60;;;;;;4988844;28;19926;-72
2021/03/25 10:35:04;;;;;;;;;;;17.30;42.20;;;;;;4994548;28;20395;-73
2021/03/25 10:37:32;;;;;;;;;;;17.40;42.00;;;;;;4992774;28;19930;-73
2021/03/25 10:40:08;;;;;;;;;;;17.50;41.90;;;;;;4992829;28;19933;-73
2021/03/25 10:42:36;;;;;;;;;;;17.60;41.50;;;;;;4975466;28;19933;-73
2021/03/25 10:45:17;;;;;;;;;;;17.80;41.30;;;;;;4979104;28;19930;-73
2021/03/25 10:47:48;;;;;;;;;;;17.90;41.00;;;;;;4993234;28;19926;-75
2021/03/25 10:50:17;;;;;;;;;;;18.10;40.70;;;;;;4993176;28;19929;-74
2021/03/25 10:52:45;;;;;;;;;;;18.40;40.40;;;;;;4990176;28;19984;-76
2021/03/25 10:55:18;;;;;;;;;;;18.70;39.90;;;;;;4993308;28;19941;-73
2021/03/25 10:57:46;;;;;;;;;;;19.00;39.30;;;;;;4984285;28;19933;-73
2021/03/25 11:00:17;;;;;;;;;;;19.40;38.80;;;;;;4989499;28;19926;-73
2021/03/25 11:02:45;;;;;;;;;;;19.90;38.00;;;;;;4988553;28;20406;-73
2021/03/25 11:05:16;;;;;;;;;;;20.40;36.60;;;;;;5011081;28;19996;-73
2021/03/25 11:07:43;;;;;;;;;;;20.90;36.30;;;;;;5004490;28;20421;-74
2021/03/25 11:10:17;;;;;;;;;;;21.60;35.30;;;;;;5016525;28;20366;-74
2021/03/25 11:12:44;;;;;;;;;;;22.00;34.10;;;;;;5016220;28;19925;-73
2021/03/25 11:15:18;;;;;;;;;;;22.60;32.70;;;;;;5017497;28;20379;-74
2021/03/25 11:17:44;;;;;;;;;;;23.00;31.20;;;;;;5015907;28;19979;-73
2021/03/25 11:20:13;;;;;;;;;;;23.90;30.80;;;;;;5016253;28;19926;-73
2021/03/25 11:22:40;;;;;;;;;;;25.00;29.90;;;;;;5017393;28;19932;-74
2021/03/25 11:25:07;;;;;;;;;;;26.00;28.60;;;;;;5027527;28;20392;-73
2021/03/25 11:27:35;;;;;;;;;;;26.80;27.70;;;;;;5034054;28;19931;-73
2021/03/25 11:30:05;;;;;;;;;;;27.50;26.30;;;;;;5025311;28;20386;-73
2021/03/25 11:32:34;;;;;;;;;;;28.30;25.50;;;;;;5016091;28;19948;-73
2021/03/25 11:35:18;;;;;;;;;;;29.50;24.40;;;;;;5017010;28;20306;-73
2021/03/25 11:37:44;;;;;;;;;;;30.40;23.40;;;;;;5015960;28;19930;-73
2021/03/25 11:40:13;;;;;;;;;;;29.20;23.10;;;;;;5015781;28;20289;-73
2021/03/25 11:42:41;;;;;;;;;;;27.50;24.30;;;;;;5015940;28;19932;-73
2021/03/25 11:45:07;;;;;;;;;;;26.10;25.70;;;;;;5015445;28;19972;-74
2021/03/25 11:47:37;;;;;;;;;;;24.90;26.60;;;;;;5015868;28;20436;-74
2021/03/25 11:50:06;;;;;;;;;;;23.90;27.30;;;;;;5031930;28;19925;-73
2021/03/25 11:52:40;;;;;;;;;;;23.10;28.70;;;;;;5035376;28;19925;-73
2021/03/25 11:55:06;;;;;;;;;;;22.50;29.10;;;;;;5031647;28;19964;-73
2021/03/25 11:57:34;;;;;;;;;;;22.00;29.70;;;;;;5035250;28;19929;-74
2021/03/25 12:00:07;;;;;;;;;;;21.60;30.30;;;;;;5023220;28;19925;-74
2021/03/25 12:02:34;;;;;;;;;;;21.30;31.00;;;;;;5017361;28;19937;-73
2021/03/25 12:05:15;;;;;;;;;;;21.10;31.50;;;;;;5016083;28;19926;-73
2021/03/25 12:07:41;;;;;;;;;;;21.00;32.00;;;;;;5013372;28;19936;-72
2021/03/25 12:10:20;;;;;;;;;;;20.80;32.00;;;;;;5026919;28;19954;-73
2021/03/25 12:12:47;;;;;;;;;;;20.80;32.20;;;;;;5020480;28;20004;-73
2021/03/25 12:15:15;;;;;;;;;;;20.70;32.30;;;;;;5018039;28;20423;-73
2021/03/25 12:17:43;;;;;;;;;;;20.80;32.60;;;;;;5015136;28;20321;-73
2021/03/25 12:20:10;;;;;;;;;;;20.70;32.50;;;;;;5019450;28;19929;-73
2021/03/25 12:22:40;;;;;;;;;;;20.70;32.80;;;;;;5019409;28;19969;-73
